Time,TemperatureF,DewpointF,PressureIn,WindDirection,WindDirectionDegrees,WindSpeedMPH,WindSpeedGustMPH,Humidity,HourlyPrecipIn,Conditions,Clouds,dailyrainin,SoftwareType,DateUTC
2013-07-30 00:07:00,54.9,53.8,30.05,NE,49,2.0,9.0,96,0.00,,,0.00,meteohub,2013-07-30 07:07:00,
2013-07-30 00:12:00,54.9,53.8,30.05,NE,34,3.0,8.0,96,0.00,,,0.00,meteohub,2013-07-30 07:12:00,
2013-07-30 00:17:00,54.9,53.8,30.05,ENE,61,4.0,6.0,96,0.00,,,0.00,meteohub,2013-07-30 07:17:00,
2013-07-30 00:22:00,54.9,53.8,30.05,ENE,71,3.0,6.0,96,0.00,,,0.00,meteohub,2013-07-30 07:22:00,
2013-07-30 00:32:00,54.9,53.8,30.06,ESE,119,1.0,7.0,96,0.00,,,0.00,meteohub,2013-07-30 07:32:00,
2013-07-30 00:38:00,54.9,53.8,30.06,ENE,61,1.0,7.0,96,0.00,,,0.00,meteohub,2013-07-30 07:38:00,
2013-07-30 00:47:00,54.9,53.8,30.06,North,355,6.0,7.0,96,0.00,,,0.00,meteohub,2013-07-30 07:47:00,
2013-07-30 00:52:00,54.9,53.8,30.06,East,83,7.0,7.0,96,0.00,,,0.00,meteohub,2013-07-30 07:52:00,
2013-07-30 01:02:00,54.9,53.8,30.06,NE,42,2.0,9.0,96,0.00,,,0.00,meteohub,2013-07-30 08:02:00,
2013-07-30 01:12:00,54.7,53.6,30.06,ENE,61,3.0,9.0,96,0.00,,,0.00,meteohub,2013-07-30 08:12:00,
2013-07-30 01:22:00,54.7,53.6,30.06,NNE,33,0.0,9.0,96,0.00,,,0.00,meteohub,2013-07-30 08:22:00,
2013-07-30 01:27:00,54.7,53.6,30.06,East,81,2.0,7.0,96,0.00,,,0.00,meteohub,2013-07-30 08:27:00,
2013-07-30 01:32:00,54.7,53.6,30.06,ENE,58,1.0,8.0,96,0.00,,,0.00,meteohub,2013-07-30 08:32:00,
2013-07-30 01:37:00,54.9,53.8,30.06,NE,53,5.0,8.0,96,0.00,,,0.00,meteohub,2013-07-30 08:37:00,
2013-07-30 01:42:00,54.9,53.8,30.06,ENE,71,3.0,9.0,96,0.00,,,0.00,meteohub,2013-07-30 08:42:00,
2013-07-30 01:52:00,54.9,53.8,30.06,NNE,25,2.0,10.0,96,0.00,,,0.00,meteohub,2013-07-30 08:52:00,
2013-07-30 01:57:00,54.9,53.8,30.06,NE,55,4.0,10.0,96,0.00,,,0.00,meteohub,2013-07-30 08:57:00,
2013-07-30 02:02:00,54.7,53.6,30.06,ENE,69,1.0,8.0,96,0.00,,,0.00,meteohub,2013-07-30 09:02:00,
2013-07-30 02:07:00,54.7,53.6,30.06,ENE,78,0.0,8.0,96,0.00,,,0.00,meteohub,2013-07-30 09:07:00,
2013-07-30 02:13:00,54.7,53.6,30.06,North,355,6.0,8.0,96,0.00,,,0.00,meteohub,2013-07-30 09:13:00,
2013-07-30 02:22:00,54.7,53.6,30.06,NE,49,0.0,6.0,96,0.00,,,0.00,meteohub,2013-07-30 09:22:00,
2013-07-30 02:27:00,54.7,53.6,30.06,SSE,161,0.0,6.0,96,0.00,,,0.00,meteohub,2013-07-30 09:27:00,
2013-07-30 02:32:00,54.7,53.6,30.06,North,5,4.0,5.0,96,0.00,,,0.00,meteohub,2013-07-30 09:32:00,
2013-07-30 02:42:00,54.5,53.4,30.06,NNE,30,0.0,8.0,96,0.00,,,0.00,meteohub,2013-07-30 09:42:00,
2013-07-30 02:47:00,54.5,53.4,30.06,ENE,57,2.0,7.0,96,0.00,,,0.00,meteohub,2013-07-30 09:47:00,
2013-07-30 02:52:00,54.7,53.6,30.06,ENE,74,1.0,7.0,96,0.00,,,0.00,meteohub,2013-07-30 09:52:00,
2013-07-30 03:02:00,54.7,53.6,30.06,NE,38,3.0,5.0,96,0.00,,,0.00,meteohub,2013-07-30 10:02:00,
2013-07-30 03:07:00,54.7,53.6,30.06,NE,40,0.0,5.0,96,0.00,,,0.00,meteohub,2013-07-30 10:07:00,
2013-07-30 03:12:00,54.7,53.6,30.06,NNE,32,4.0,5.0,96,0.00,,,0.00,meteohub,2013-07-30 10:12:00,
2013-07-30 03:22:00,54.5,53.6,30.06,NE,36,1.0,6.0,97,0.00,,,0.00,meteohub,2013-07-30 10:22:00,
2013-07-30 03:32:00,54.5,53.6,30.06,ESE,109,3.0,6.0,97,0.00,,,0.00,meteohub,2013-07-30 10:32:00,
2013-07-30 03:37:00,54.3,53.4,30.06,NE,47,0.0,5.0,97,0.00,,,0.00,meteohub,2013-07-30 10:37:00,
2013-07-30 03:42:00,54.3,53.4,30.06,SSE,161,3.0,5.0,97,0.00,,,0.00,meteohub,2013-07-30 10:42:00,
2013-07-30 03:47:00,54.3,53.4,30.06,NE,51,2.0,5.0,97,0.00,,,0.00,meteohub,2013-07-30 10:47:00,
2013-07-30 03:57:00,54.3,53.4,30.06,ENE,61,3.0,5.0,97,0.00,,,0.00,meteohub,2013-07-30 10:57:00,
2013-07-30 04:02:00,54.3,53.4,30.06,ENE,68,0.0,5.0,97,0.00,,,0.00,meteohub,2013-07-30 11:02:00,
2013-07-30 04:07:00,54.3,53.4,30.06,NE,51,0.0,5.0,97,0.00,,,0.00,meteohub,2013-07-30 11:07:00,
2013-07-30 04:12:00,54.3,53.4,30.06,ENE,78,0.0,5.0,97,0.00,,,0.00,meteohub,2013-07-30 11:12:00,
2013-07-30 04:22:00,54.3,53.4,30.06,SE,143,0.0,5.0,97,0.00,,,0.00,meteohub,2013-07-30 11:22:00,
2013-07-30 04:27:00,54.3,53.4,30.06,SSE,161,1.0,5.0,97,0.00,,,0.00,meteohub,2013-07-30 11:27:00,
2013-07-30 04:32:00,54.3,53.4,30.06,SE,146,0.0,5.0,97,0.00,,,0.00,meteohub,2013-07-30 11:32:00,
2013-07-30 04:37:00,54.1,53.2,30.06,East,89,0.0,3.0,97,0.00,,,0.00,meteohub,2013-07-30 11:37:00,
2013-07-30 04:42:00,54.1,53.2,30.06,North,11,0.0,5.0,97,0.00,,,0.00,meteohub,2013-07-30 11:42:00,
2013-07-30 04:47:00,54.1,53.2,30.06,NNE,15,1.0,5.0,97,0.00,,,0.00,meteohub,2013-07-30 11:47:00,
2013-07-30 04:52:00,54.1,53.2,30.06,NE,40,0.0,5.0,97,0.00,,,0.00,meteohub,2013-07-30 11:52:00,
2013-07-30 04:57:00,54.1,53.2,30.06,NW,313,1.0,5.0,97,0.00,,,0.00,meteohub,2013-07-30 11:57:00,
2013-07-30 05:02:00,54.3,53.4,30.06,NW,321,3.0,5.0,97,0.00,,,0.00,meteohub,2013-07-30 12:02:00,
2013-07-30 05:07:00,54.3,53.4,30.06,NE,38,1.0,5.0,97,0.00,,,0.00,meteohub,2013-07-30 12:07:00,
2013-07-30 05:12:00,54.1,53.2,30.07,SSE,163,0.0,5.0,97,0.00,,,0.00,meteohub,2013-07-30 12:12:00,
2013-07-30 05:17:00,54.1,53.2,30.07,SE,126,0.0,5.0,97,0.00,,,0.00,meteohub,2013-07-30 12:17:00,
2013-07-30 05:22:00,54.1,53.2,30.07,NNW,344,0.0,5.0,97,0.00,,,0.00,meteohub,2013-07-30 12:22:00,
2013-07-30 05:27:00,54.1,53.2,30.07,ENE,57,4.0,6.0,97,0.00,,,0.00,meteohub,2013-07-30 12:27:00,
2013-07-30 05:32:00,54.1,53.2,30.07,ENE,72,1.0,6.0,97,0.00,,,0.00,meteohub,2013-07-30 12:32:00,
2013-07-30 05:42:00,54.1,53.2,30.07,ENE,71,0.0,4.0,97,0.00,,,0.00,meteohub,2013-07-30 12:42:00,
2013-07-30 05:52:00,54.1,53.2,30.07,East,92,0.0,4.0,97,0.00,,,0.00,meteohub,2013-07-30 12:52:00,
2013-07-30 05:57:00,54.1,53.2,30.08,East,92,0.0,5.0,97,0.00,,,0.00,meteohub,2013-07-30 12:57:00,
2013-07-30 06:02:00,54.1,53.2,30.08,ENE,72,0.0,4.0,97,0.00,,,0.00,meteohub,2013-07-30 13:02:00,
2013-07-30 06:07:00,54.1,53.2,30.08,ENE,57,0.0,5.0,97,0.00,,,0.00,meteohub,2013-07-30 13:07:00,
2013-07-30 06:12:00,54.1,53.2,30.08,ENE,75,0.0,5.0,97,0.00,,,0.00,meteohub,2013-07-30 13:12:00,
2013-07-30 06:17:00,54.1,53.2,30.08,ENE,74,0.0,5.0,97,0.00,,,0.00,meteohub,2013-07-30 13:17:00,
2013-07-30 06:22:00,54.1,53.2,30.09,ENE,74,2.0,3.0,97,0.00,,,0.00,meteohub,2013-07-30 13:22:00,
2013-07-30 06:27:00,54.1,53.2,30.09,South,177,3.0,3.0,97,0.00,,,0.00,meteohub,2013-07-30 13:27:00,
2013-07-30 06:32:00,54.1,53.2,30.09,East,80,1.0,3.0,97,0.00,,,0.00,meteohub,2013-07-30 13:32:00,
2013-07-30 06:37:00,54.1,53.2,30.09,East,80,0.0,3.0,97,0.00,,,0.00,meteohub,2013-07-30 13:37:00,
2013-07-30 06:42:00,54.1,53.2,30.09,East,80,1.0,3.0,97,0.00,,,0.00,meteohub,2013-07-30 13:42:00,
2013-07-30 06:47:00,54.3,53.4,30.09,ENE,66,0.0,4.0,97,0.00,,,0.00,meteohub,2013-07-30 13:47:00,
2013-07-30 06:52:00,54.3,53.4,30.09,ENE,65,2.0,4.0,97,0.00,,,0.00,meteohub,2013-07-30 13:52:00,
2013-07-30 06:57:00,54.3,53.4,30.10,ENE,60,1.0,4.0,97,0.00,,,0.00,meteohub,2013-07-30 13:57:00,
2013-07-30 07:02:00,54.3,53.4,30.10,ENE,61,0.0,3.0,97,0.00,,,0.00,meteohub,2013-07-30 14:02:00,
2013-07-30 07:07:00,54.3,53.4,30.10,ENE,69,0.0,3.0,97,0.00,,,0.00,meteohub,2013-07-30 14:07:00,
2013-07-30 07:12:00,54.3,53.4,30.10,NE,42,0.0,3.0,97,0.00,,,0.00,meteohub,2013-07-30 14:12:00,
2013-07-30 07:22:00,54.5,53.6,30.10,ENE,59,0.0,3.0,97,0.00,,,0.00,meteohub,2013-07-30 14:22:00,
2013-07-30 07:27:00,54.7,53.6,30.10,NE,52,0.0,3.0,96,0.00,,,0.00,meteohub,2013-07-30 14:27:00,
2013-07-30 07:37:00,54.7,53.6,30.11,ENE,61,0.0,4.0,96,0.00,,,0.00,meteohub,2013-07-30 14:37:00,
2013-07-30 07:47:00,54.9,53.4,30.11,NE,43,0.0,5.0,95,0.00,,,0.00,meteohub,2013-07-30 14:47:00,
2013-07-30 07:52:00,54.9,53.4,30.11,ENE,60,0.0,5.0,95,0.00,,,0.00,meteohub,2013-07-30 14:52:00,
2013-07-30 07:57:00,55.0,53.6,30.11,ENE,60,1.0,4.0,95,0.00,,,0.00,meteohub,2013-07-30 14:57:00,
2013-07-30 08:07:00,55.0,53.6,30.12,ESE,105,0.0,4.0,95,0.00,,,0.00,meteohub,2013-07-30 15:07:00,
2013-07-30 08:12:00,55.0,53.6,30.12,South,177,4.0,4.0,95,0.00,,,0.00,meteohub,2013-07-30 15:12:00,
2013-07-30 08:17:00,54.9,53.2,30.12,South,175,2.0,5.0,94,0.00,,,0.00,meteohub,2013-07-30 15:17:00,
2013-07-30 08:22:00,54.9,53.4,30.12,SSE,153,0.0,5.0,95,0.00,,,0.00,meteohub,2013-07-30 15:22:00,
2013-07-30 08:27:00,54.9,53.4,30.12,SSW,192,3.0,5.0,95,0.00,,,0.00,meteohub,2013-07-30 15:27:00,
2013-07-30 08:32:00,54.9,53.4,30.12,SSE,165,1.0,7.0,95,0.00,,,0.00,meteohub,2013-07-30 15:32:00,
2013-07-30 08:37:00,54.9,53.2,30.12,NNW,331,0.0,7.0,94,0.00,,,0.00,meteohub,2013-07-30 15:37:00,
2013-07-30 08:47:00,54.9,53.4,30.12,North,11,0.0,5.0,95,0.00,,,0.00,meteohub,2013-07-30 15:47:00,
2013-07-30 08:52:00,55.0,53.6,30.12,West,269,2.0,5.0,95,0.00,,,0.00,meteohub,2013-07-30 15:52:00,
2013-07-30 08:57:00,55.0,53.6,30.13,West,261,1.0,5.0,95,0.00,,,0.00,meteohub,2013-07-30 15:57:00,
2013-07-30 09:02:00,55.2,53.8,30.13,NNW,327,1.0,5.0,95,0.00,,,0.00,meteohub,2013-07-30 16:02:00,
2013-07-30 09:12:00,55.0,53.6,30.13,ENE,73,1.0,4.0,95,0.00,,,0.00,meteohub,2013-07-30 16:12:00,
2013-07-30 09:17:00,55.0,53.6,30.13,ESE,107,0.0,5.0,95,0.00,,,0.00,meteohub,2013-07-30 16:17:00,
2013-07-30 09:22:00,55.2,53.8,30.13,NE,36,0.0,5.0,95,0.00,,,0.00,meteohub,2013-07-30 16:22:00,
2013-07-30 09:32:00,55.6,54.0,30.13,SSE,153,2.0,5.0,94,0.00,,,0.00,meteohub,2013-07-30 16:32:00,
2013-07-30 09:37:00,55.6,54.0,30.13,West,280,0.0,9.0,94,0.00,,,0.00,meteohub,2013-07-30 16:37:00,
2013-07-30 09:42:00,55.9,54.0,30.13,SE,136,0.0,9.0,93,0.00,,,0.00,meteohub,2013-07-30 16:42:00,
2013-07-30 09:47:00,55.9,54.0,30.13,ENE,65,0.0,9.0,93,0.00,,,0.00,meteohub,2013-07-30 16:47:00,
2013-07-30 09:52:00,55.9,54.0,30.13,SE,127,6.0,6.0,93,0.00,,,0.00,meteohub,2013-07-30 16:52:00,
2013-07-30 10:02:00,55.9,54.0,30.13,ENE,66,1.0,7.0,93,0.00,,,0.00,meteohub,2013-07-30 17:02:00,
2013-07-30 10:07:00,56.1,53.8,30.13,NE,53,2.0,7.0,92,0.00,,,0.00,meteohub,2013-07-30 17:07:00,
2013-07-30 10:17:00,55.8,53.8,30.13,ENE,65,2.0,6.0,93,0.00,,,0.00,meteohub,2013-07-30 17:17:00,
2013-07-30 10:22:00,55.9,54.0,30.13,NE,40,1.0,6.0,93,0.00,,,0.00,meteohub,2013-07-30 17:22:00,
2013-07-30 10:27:00,55.9,54.0,30.13,NE,44,1.0,4.0,93,0.00,,,0.00,meteohub,2013-07-30 17:27:00,
2013-07-30 10:32:00,56.5,54.5,30.13,ESE,115,0.0,5.0,93,0.00,,,0.00,meteohub,2013-07-30 17:32:00,
2013-07-30 10:42:00,56.5,54.5,30.13,ENE,78,2.0,5.0,93,0.00,,,0.00,meteohub,2013-07-30 17:42:00,
2013-07-30 10:52:00,56.5,54.1,30.14,South,186,1.0,5.0,92,0.00,,,0.00,meteohub,2013-07-30 17:52:00,
2013-07-30 11:02:00,56.1,54.1,30.14,South,190,0.0,6.0,93,0.00,,,0.00,meteohub,2013-07-30 18:02:00,
2013-07-30 11:07:00,56.7,54.7,30.14,NW,318,5.0,6.0,93,0.00,,,0.00,meteohub,2013-07-30 18:07:00,
2013-07-30 11:17:00,56.8,54.9,30.14,WNW,284,0.0,7.0,93,0.00,,,0.00,meteohub,2013-07-30 18:17:00,
2013-07-30 11:22:00,56.8,54.3,30.14,WNW,286,2.0,7.0,91,0.00,,,0.00,meteohub,2013-07-30 18:22:00,
2013-07-30 11:32:00,57.0,54.5,30.14,SSW,199,2.0,8.0,91,0.00,,,0.00,meteohub,2013-07-30 18:32:00,
2013-07-30 11:37:00,57.0,54.5,30.14,North,11,2.0,8.0,91,0.00,,,0.00,meteohub,2013-07-30 18:37:00,
2013-07-30 11:42:00,57.4,54.9,30.13,WNW,299,5.0,6.0,91,0.00,,,0.00,meteohub,2013-07-30 18:42:00,
2013-07-30 11:47:00,57.4,54.9,30.14,WNW,295,7.0,10.0,91,0.00,,,0.00,meteohub,2013-07-30 18:47:00,
2013-07-30 11:52:00,57.2,54.7,30.14,NW,325,7.0,10.0,91,0.00,,,0.00,meteohub,2013-07-30 18:52:00,
2013-07-30 11:57:00,57.0,54.1,30.14,South,180,7.0,10.0,90,0.00,,,0.00,meteohub,2013-07-30 18:57:00,
2013-07-30 12:02:00,57.4,54.5,30.14,North,5,2.0,9.0,90,0.00,,,0.00,meteohub,2013-07-30 19:02:00,
2013-07-30 12:12:00,57.7,54.5,30.14,North,0,0.0,12.0,89,0.00,,,0.00,meteohub,2013-07-30 19:12:00,
2013-07-30 12:17:00,57.9,54.3,30.14,NNW,328,3.0,12.0,88,0.00,,,0.00,meteohub,2013-07-30 19:17:00,
2013-07-30 12:22:00,58.1,54.9,30.14,NW,316,7.0,10.0,89,0.00,,,0.00,meteohub,2013-07-30 19:22:00,
2013-07-30 12:27:00,57.6,54.0,30.14,North,350,2.0,9.0,88,0.00,,,0.00,meteohub,2013-07-30 19:27:00,
2013-07-30 12:37:00,57.7,54.5,30.14,WNW,302,5.0,12.0,89,0.00,,,0.00,meteohub,2013-07-30 19:37:00,
2013-07-30 12:47:00,57.9,54.7,30.14,SSE,149,6.0,11.0,89,0.00,,,0.00,meteohub,2013-07-30 19:47:00,
2013-07-30 12:52:00,57.6,54.3,30.14,WSW,254,2.0,11.0,89,0.00,,,0.00,meteohub,2013-07-30 19:52:00,
2013-07-30 12:57:00,57.4,54.5,30.14,SW,230,2.0,11.0,90,0.00,,,0.00,meteohub,2013-07-30 19:57:00,
2013-07-30 13:02:00,57.4,54.5,30.13,SSW,205,5.0,15.0,90,0.00,,,0.00,meteohub,2013-07-30 20:02:00,
2013-07-30 13:12:00,57.6,54.7,30.13,NW,305,4.0,12.0,90,0.00,,,0.00,meteohub,2013-07-30 20:12:00,
2013-07-30 13:17:00,58.3,55.0,30.13,South,175,3.0,11.0,89,0.00,,,0.00,meteohub,2013-07-30 20:17:00,
2013-07-30 13:22:00,57.9,54.3,30.13,South,176,5.0,11.0,88,0.00,,,0.00,meteohub,2013-07-30 20:22:00,
2013-07-30 13:27:00,57.9,54.7,30.13,NW,320,4.0,11.0,89,0.00,,,0.00,meteohub,2013-07-30 20:27:00,
2013-07-30 13:32:00,58.1,54.9,30.13,South,178,3.0,9.0,89,0.00,,,0.00,meteohub,2013-07-30 20:32:00,
2013-07-30 13:37:00,57.9,54.3,30.12,WNW,290,4.0,9.0,88,0.00,,,0.00,meteohub,2013-07-30 20:37:00,
2013-07-30 13:47:00,57.9,54.3,30.12,NW,306,3.0,12.0,88,0.00,,,0.00,meteohub,2013-07-30 20:47:00,
2013-07-30 13:52:00,57.7,54.5,30.12,South,173,2.0,12.0,89,0.00,,,0.00,meteohub,2013-07-30 20:52:00,
2013-07-30 14:02:00,58.1,54.9,30.12,SE,146,4.0,9.0,89,0.00,,,0.00,meteohub,2013-07-30 21:02:00,
2013-07-30 14:12:00,58.8,55.2,30.12,NW,305,11.0,11.0,88,0.00,,,0.00,meteohub,2013-07-30 21:12:00,
2013-07-30 14:17:00,58.1,54.5,30.12,West,260,2.0,13.0,88,0.00,,,0.00,meteohub,2013-07-30 21:17:00,
2013-07-30 14:22:00,57.7,54.1,30.12,SE,132,4.0,13.0,88,0.00,,,0.00,meteohub,2013-07-30 21:22:00,
2013-07-30 14:32:00,57.9,54.7,30.12,ESE,118,0.0,11.0,89,0.00,,,0.00,meteohub,2013-07-30 21:32:00,
2013-07-30 14:37:00,58.1,54.5,30.12,ESE,121,3.0,11.0,88,0.00,,,0.00,meteohub,2013-07-30 21:37:00,
2013-07-30 14:42:00,58.1,54.5,30.12,North,355,1.0,9.0,88,0.00,,,0.00,meteohub,2013-07-30 21:42:00,
2013-07-30 14:52:00,58.1,54.9,30.12,North,350,5.0,8.0,89,0.00,,,0.00,meteohub,2013-07-30 21:52:00,
2013-07-30 15:02:00,57.7,54.5,30.12,WSW,257,6.0,14.0,89,0.00,,,0.00,meteohub,2013-07-30 22:02:00,
2013-07-30 15:12:00,57.9,54.3,30.12,SSE,159,5.0,14.0,88,0.00,,,0.00,meteohub,2013-07-30 22:12:00,
2013-07-30 15:17:00,57.4,54.1,30.12,North,9,4.0,10.0,89,0.00,,,0.00,meteohub,2013-07-30 22:17:00,
2013-07-30 15:22:00,57.4,54.1,30.12,NNW,344,3.0,11.0,89,0.00,,,0.00,meteohub,2013-07-30 22:22:00,
2013-07-30 15:27:00,57.4,54.1,30.12,SSE,167,2.0,12.0,89,0.00,,,0.00,meteohub,2013-07-30 22:27:00,
2013-07-30 15:32:00,57.4,54.5,30.11,NE,34,3.0,12.0,90,0.00,,,0.00,meteohub,2013-07-30 22:32:00,
2013-07-30 15:37:00,57.6,54.7,30.12,South,179,6.0,11.0,90,0.00,,,0.00,meteohub,2013-07-30 22:37:00,
2013-07-30 15:42:00,57.6,54.7,30.12,North,5,3.0,12.0,90,0.00,,,0.00,meteohub,2013-07-30 22:42:00,
2013-07-30 15:52:00,57.2,54.3,30.11,North,349,2.0,13.0,90,0.00,,,0.00,meteohub,2013-07-30 22:52:00,
2013-07-30 16:02:00,57.0,54.1,30.11,NW,317,3.0,13.0,90,0.00,,,0.00,meteohub,2013-07-30 23:02:00,
2013-07-30 16:07:00,56.8,54.0,30.11,North,0,4.0,14.0,90,0.00,,,0.00,meteohub,2013-07-30 23:07:00,
2013-07-30 16:12:00,56.8,54.0,30.11,NNW,336,2.0,14.0,90,0.00,,,0.00,meteohub,2013-07-30 23:12:00,
2013-07-30 16:17:00,56.8,54.3,30.11,ENE,65,2.0,11.0,91,0.00,,,0.00,meteohub,2013-07-30 23:17:00,
2013-07-30 16:22:00,56.8,54.0,30.11,South,180,2.0,9.0,90,0.00,,,0.00,meteohub,2013-07-30 23:22:00,
2013-07-30 16:32:00,56.7,54.1,30.10,NW,309,5.0,10.0,91,0.00,,,0.00,meteohub,2013-07-30 23:32:00,
2013-07-30 16:37:00,56.7,54.1,30.10,West,273,5.0,15.0,91,0.00,,,0.00,meteohub,2013-07-30 23:37:00,
2013-07-30 16:42:00,56.7,54.1,30.11,WNW,288,2.0,15.0,91,0.00,,,0.00,meteohub,2013-07-30 23:42:00,
2013-07-30 16:47:00,56.5,54.0,30.10,SSW,200,6.0,15.0,91,0.00,,,0.00,meteohub,2013-07-30 23:47:00,
2013-07-30 16:52:00,56.5,54.0,30.10,WNW,302,2.0,11.0,91,0.00,,,0.00,meteohub,2013-07-30 23:52:00,
2013-07-30 16:57:00,56.5,54.0,30.11,NNW,327,8.0,10.0,91,0.00,,,0.00,meteohub,2013-07-30 23:57:00,
2013-07-30 17:07:00,56.1,53.6,30.10,NNW,337,6.0,12.0,91,0.00,,,0.00,meteohub,2013-07-31 00:07:00,
2013-07-30 17:12:00,56.1,53.8,30.10,West,268,6.0,10.0,92,0.00,,,0.00,meteohub,2013-07-31 00:12:00,
2013-07-30 17:17:00,56.1,53.8,30.10,SSE,153,2.0,14.0,92,0.00,,,0.00,meteohub,2013-07-31 00:17:00,
2013-07-30 17:22:00,56.1,53.8,30.10,South,191,3.0,14.0,92,0.00,,,0.00,meteohub,2013-07-31 00:22:00,
2013-07-30 17:27:00,56.1,53.8,30.10,SSW,209,1.0,14.0,92,0.00,,,0.00,meteohub,2013-07-31 00:27:00,
2013-07-30 17:32:00,56.1,53.8,30.10,ENE,59,3.0,11.0,92,0.00,,,0.00,meteohub,2013-07-31 00:32:00,
2013-07-30 17:42:00,56.1,53.8,30.10,NW,305,2.0,13.0,92,0.00,,,0.00,meteohub,2013-07-31 00:42:00,
2013-07-30 17:47:00,55.9,53.6,30.09,ENE,74,1.0,13.0,92,0.00,,,0.00,meteohub,2013-07-31 00:47:00,
2013-07-30 17:57:00,55.9,53.6,30.09,NE,36,1.0,13.0,92,0.00,,,0.00,meteohub,2013-07-31 00:57:00,
2013-07-30 18:02:00,56.1,53.8,30.09,NE,49,2.0,8.0,92,0.00,,,0.00,meteohub,2013-07-31 01:02:00,
2013-07-30 18:07:00,55.9,53.6,30.09,SSW,196,5.0,8.0,92,0.00,,,0.00,meteohub,2013-07-31 01:07:00,
2013-07-30 18:12:00,55.9,53.6,30.09,NNE,17,2.0,12.0,92,0.00,,,0.00,meteohub,2013-07-31 01:12:00,
2013-07-30 18:17:00,55.9,53.6,30.09,North,355,1.0,12.0,92,0.00,,,0.00,meteohub,2013-07-31 01:17:00,
2013-07-30 18:22:00,55.9,53.6,30.08,ESE,110,1.0,10.0,92,0.00,,,0.00,meteohub,2013-07-31 01:22:00,
2013-07-30 18:27:00,55.9,53.6,30.08,WNW,285,2.0,10.0,92,0.00,,,0.00,meteohub,2013-07-31 01:27:00,
2013-07-30 18:37:00,55.8,53.8,30.08,ESE,112,3.0,14.0,93,0.00,,,0.00,meteohub,2013-07-31 01:37:00,
2013-07-30 18:42:00,55.8,53.8,30.08,SSE,153,2.0,14.0,93,0.00,,,0.00,meteohub,2013-07-31 01:42:00,
2013-07-30 18:47:00,55.8,53.8,30.08,WNW,303,3.0,10.0,93,0.00,,,0.00,meteohub,2013-07-31 01:47:00,
2013-07-30 18:52:00,55.6,53.6,30.08,NE,42,2.0,10.0,93,0.00,,,0.00,meteohub,2013-07-31 01:52:00,
2013-07-30 18:57:00,55.6,53.6,30.08,SW,232,0.0,9.0,93,0.00,,,0.00,meteohub,2013-07-31 01:57:00,
2013-07-30 19:02:00,55.4,53.8,30.08,North,5,5.0,9.0,94,0.00,,,0.00,meteohub,2013-07-31 02:02:00,
2013-07-30 19:07:00,55.2,53.6,30.08,ESE,123,4.0,10.0,94,0.00,,,0.00,meteohub,2013-07-31 02:07:00,
2013-07-30 19:17:00,55.0,53.4,30.08,NW,319,6.0,13.0,94,0.00,,,0.00,meteohub,2013-07-31 02:17:00,
2013-07-30 19:22:00,55.0,53.4,30.08,NW,320,1.0,13.0,94,0.00,,,0.00,meteohub,2013-07-31 02:22:00,
2013-07-30 19:27:00,54.9,53.2,30.08,South,169,3.0,13.0,94,0.00,,,0.00,meteohub,2013-07-31 02:27:00,
2013-07-30 19:32:00,54.7,53.1,30.08,NNW,340,1.0,13.0,94,0.00,,,0.00,meteohub,2013-07-31 02:32:00,
2013-07-30 19:37:00,54.7,53.1,30.08,NNW,342,3.0,11.0,94,0.00,,,0.00,meteohub,2013-07-31 02:37:00,
2013-07-30 19:47:00,54.3,52.9,30.08,ESE,109,2.0,11.0,95,0.00,,,0.00,meteohub,2013-07-31 02:47:00,
2013-07-30 19:52:00,54.1,52.7,30.08,South,188,1.0,15.0,95,0.00,,,0.00,meteohub,2013-07-31 02:52:00,
2013-07-30 20:02:00,54.0,52.5,30.08,WNW,282,3.0,15.0,95,0.00,,,0.00,meteohub,2013-07-31 03:02:00,
2013-07-30 20:12:00,53.8,52.3,30.08,West,281,2.0,10.0,95,0.00,,,0.00,meteohub,2013-07-31 03:12:00,
2013-07-30 20:22:00,53.8,52.7,30.08,NW,304,1.0,12.0,96,0.00,,,0.00,meteohub,2013-07-31 03:22:00,
2013-07-30 20:27:00,53.6,52.5,30.09,NW,317,7.0,11.0,96,0.00,,,0.00,meteohub,2013-07-31 03:27:00,
2013-07-30 20:32:00,53.4,52.3,30.09,NW,304,6.0,9.0,96,0.00,,,0.00,meteohub,2013-07-31 03:32:00,
2013-07-30 20:37:00,53.4,52.3,30.09,NNW,329,3.0,13.0,96,0.00,,,0.00,meteohub,2013-07-31 03:37:00,
2013-07-30 20:47:00,53.2,52.2,30.09,NNE,22,2.0,13.0,96,0.00,,,0.00,meteohub,2013-07-31 03:47:00,
2013-07-30 20:52:00,53.2,52.3,30.09,SE,134,3.0,8.0,97,0.00,,,0.00,meteohub,2013-07-31 03:52:00,
2013-07-30 20:57:00,53.2,52.3,30.09,ENE,65,1.0,8.0,97,0.00,,,0.00,meteohub,2013-07-31 03:57:00,
2013-07-30 21:02:00,53.2,52.3,30.09,SE,130,4.0,8.0,97,0.00,,,0.00,meteohub,2013-07-31 04:02:00,
2013-07-30 21:07:00,53.1,52.2,30.09,SE,134,4.0,8.0,97,0.00,,,0.00,meteohub,2013-07-31 04:07:00,
2013-07-30 21:12:00,53.1,52.2,30.09,NE,36,2.0,8.0,97,0.00,,,0.00,meteohub,2013-07-31 04:12:00,
2013-07-30 21:17:00,53.1,52.2,30.09,North,5,3.0,8.0,97,0.00,,,0.00,meteohub,2013-07-31 04:17:00,
2013-07-30 21:22:00,53.1,52.2,30.09,NE,54,0.0,8.0,97,0.00,,,0.00,meteohub,2013-07-31 04:22:00,
2013-07-30 21:27:00,52.9,52.0,30.09,North,355,4.0,8.0,97,0.00,,,0.00,meteohub,2013-07-31 04:27:00,
2013-07-30 21:32:00,52.9,52.0,30.09,SW,219,5.0,8.0,97,0.00,,,0.00,meteohub,2013-07-31 04:32:00,
2013-07-30 21:37:00,52.9,52.0,30.10,North,5,2.0,7.0,97,0.00,,,0.00,meteohub,2013-07-31 04:37:00,
2013-07-30 21:47:00,52.5,51.6,30.10,WSW,238,2.0,7.0,97,0.00,,,0.00,meteohub,2013-07-31 04:47:00,
2013-07-30 21:52:00,52.5,51.6,30.10,WNW,286,1.0,12.0,97,0.00,,,0.00,meteohub,2013-07-31 04:52:00,
2013-07-30 22:02:00,52.5,52.0,30.10,ESE,104,1.0,12.0,98,0.00,,,0.00,meteohub,2013-07-31 05:02:00,
2013-07-30 22:12:00,52.3,51.8,30.10,North,349,1.0,6.0,98,0.00,,,0.00,meteohub,2013-07-31 05:12:00,
2013-07-30 22:17:00,52.5,52.0,30.10,East,84,0.0,6.0,98,0.00,,,0.00,meteohub,2013-07-31 05:17:00,
2013-07-30 22:22:00,52.3,51.8,30.10,NNE,19,2.0,6.0,98,0.00,,,0.00,meteohub,2013-07-31 05:22:00,
2013-07-30 22:27:00,52.3,51.8,30.10,NE,56,1.0,8.0,98,0.00,,,0.00,meteohub,2013-07-31 05:27:00,
2013-07-30 22:32:00,52.3,51.8,30.10,South,175,3.0,8.0,98,0.00,,,0.00,meteohub,2013-07-31 05:32:00,
2013-07-30 22:42:00,52.3,51.8,30.11,NNW,348,0.0,5.0,98,0.00,,,0.00,meteohub,2013-07-31 05:42:00,
2013-07-30 22:47:00,52.3,51.8,30.11,North,5,1.0,8.0,98,0.00,,,0.00,meteohub,2013-07-31 05:47:00,
2013-07-30 22:52:00,52.3,51.8,30.11,SE,126,1.0,10.0,98,0.00,,,0.00,meteohub,2013-07-31 05:52:00,
2013-07-30 22:57:00,52.3,51.8,30.10,SSE,147,1.0,10.0,98,0.00,,,0.00,meteohub,2013-07-31 05:57:00,
2013-07-30 23:02:00,52.3,51.8,30.11,SSE,153,0.0,10.0,98,0.00,,,0.00,meteohub,2013-07-31 06:02:00,
2013-07-30 23:07:00,52.5,52.0,30.11,ENE,78,0.0,8.0,98,0.00,,,0.00,meteohub,2013-07-31 06:07:00,
2013-07-30 23:17:00,52.3,51.8,30.11,ENE,72,0.0,8.0,98,0.00,,,0.00,meteohub,2013-07-31 06:17:00,
2013-07-30 23:22:00,52.3,51.8,30.11,SSE,154,0.0,8.0,98,0.00,,,0.00,meteohub,2013-07-31 06:22:00,
2013-07-30 23:27:00,52.3,51.8,30.11,South,186,2.0,8.0,98,0.00,,,0.00,meteohub,2013-07-31 06:27:00,
2013-07-30 23:37:00,52.3,51.8,30.11,ESE,115,1.0,12.0,98,0.00,,,0.00,meteohub,2013-07-31 06:37:00,
2013-07-30 23:47:00,52.5,52.0,30.11,SE,143,0.0,6.0,98,0.00,,,0.00,meteohub,2013-07-31 06:47:00,
2013-07-30 23:57:00,52.5,52.0,30.11,South,182,4.0,5.0,98,0.00,,,0.00,meteohub,2013-07-31 06:57:00,